sensor_id;sensor_type;location;lat;lon;timestamp;pressure;altitude;pressure_sealevel;temperature;humidity
78149;BME280;67396;42.664;23.382;2023-04-24T00:00:46;94704.41;;;11.47;49.51
78149;BME280;67396;42.664;23.382;2023-04-24T00:03:12;94700.47;;;11.48;49.02
78149;BME280;67396;42.664;23.382;2023-04-24T00:05:38;94700.50;;;11.41;49.34
78149;BME280;67396;42.664;23.382;2023-04-24T00:08:05;94682.41;;;11.47;49.43
78149;BME280;67396;42.664;23.382;2023-04-24T00:10:31;94691.81;;;11.60;48.90
78149;BME280;67396;42.664;23.382;2023-04-24T00:12:56;94689.44;;;11.69;49.11
78149;BME280;67396;42.664;23.382;2023-04-24T00:15:22;94687.88;;;11.54;49.57
78149;BME280;67396;42.664;23.382;2023-04-24T00:17:47;94677.72;;;11.51;49.71
78149;BME280;67396;42.664;23.382;2023-04-24T00:20:13;94668.69;;;11.40;50.19
78149;BME280;67396;42.664;23.382;2023-04-24T00:22:40;94673.03;;;11.41;50.09
78149;BME280;67396;42.664;23.382;2023-04-24T00:25:06;94674.59;;;11.42;49.82
78149;BME280;67396;42.664;23.382;2023-04-24T00:27:31;94671.00;;;11.52;49.47
78149;BME280;67396;42.664;23.382;2023-04-24T00:29:57;94674.16;;;11.51;49.83
78149;BME280;67396;42.664;23.382;2023-04-24T00:32:22;94669.03;;;11.53;49.80
78149;BME280;67396;42.664;23.382;2023-04-24T00:34:47;94684.38;;;11.50;49.67
78149;BME280;67396;42.664;23.382;2023-04-24T00:37:13;94674.53;;;11.56;49.93
78149;BME280;67396;42.664;23.382;2023-04-24T00:39:38;94669.81;;;11.57;49.81
78149;BME280;67396;42.664;23.382;2023-04-24T00:42:04;94658.81;;;11.53;50.28
78149;BME280;67396;42.664;23.382;2023-04-24T00:44:32;94668.28;;;11.45;50.42
78149;BME280;67396;42.664;23.382;2023-04-24T00:46:58;94669.09;;;11.39;50.60
78149;BME280;67396;42.664;23.382;2023-04-24T00:49:24;94665.09;;;11.57;49.92
78149;BME280;67396;42.664;23.382;2023-04-24T00:51:52;94673.69;;;11.70;49.90
78149;BME280;67396;42.664;23.382;2023-04-24T00:54:19;94667.78;;;11.72;49.96
78149;BME280;67396;42.664;23.382;2023-04-24T00:56:44;94665.94;;;11.47;51.40
78149;BME280;67396;42.664;23.382;2023-04-24T00:59:12;94667.16;;;11.32;51.90
78149;BME280;67396;42.664;23.382;2023-04-24T01:01:38;94672.22;;;11.48;51.22
78149;BME280;67396;42.664;23.382;2023-04-24T01:04:07;94665.91;;;11.54;51.43
78149;BME280;67396;42.664;23.382;2023-04-24T01:06:38;94678.50;;;11.48;51.96
78149;BME280;67396;42.664;23.382;2023-04-24T01:09:04;94682.44;;;11.26;52.52
78149;BME280;67396;42.664;23.382;2023-04-24T01:11:30;94678.97;;;11.04;53.68
78149;BME280;67396;42.664;23.382;2023-04-24T01:13:56;94679.38;;;10.92;54.86
78149;BME280;67396;42.664;23.382;2023-04-24T01:16:22;94666.03;;;10.98;53.96
78149;BME280;67396;42.664;23.382;2023-04-24T01:18:47;94666.03;;;10.83;55.36
78149;BME280;67396;42.664;23.382;2023-04-24T01:21:14;94665.28;;;10.72;56.12
78149;BME280;67396;42.664;23.382;2023-04-24T01:23:44;94659.00;;;10.68;55.27
78149;BME280;67396;42.664;23.382;2023-04-24T01:26:10;94661.34;;;10.80;54.68
78149;BME280;67396;42.664;23.382;2023-04-24T01:28:37;94653.06;;;11.02;53.48
78149;BME280;67396;42.664;23.382;2023-04-24T01:31:02;94649.13;;;11.10;52.85
78149;BME280;67396;42.664;23.382;2023-04-24T01:33:28;94645.59;;;11.13;52.82
78149;BME280;67396;42.664;23.382;2023-04-24T01:35:54;94653.47;;;11.04;53.15
78149;BME280;67396;42.664;23.382;2023-04-24T01:38:19;94638.16;;;11.17;52.72
78149;BME280;67396;42.664;23.382;2023-04-24T01:40:45;94642.41;;;11.28;52.66
78149;BME280;67396;42.664;23.382;2023-04-24T01:43:11;94642.06;;;11.23;53.23
78149;BME280;67396;42.664;23.382;2023-04-24T01:45:36;94629.88;;;11.24;52.83
78149;BME280;67396;42.664;23.382;2023-04-24T01:48:02;94635.00;;;11.25;53.13
78149;BME280;67396;42.664;23.382;2023-04-24T01:50:28;94625.97;;;11.18;53.53
78149;BME280;67396;42.664;23.382;2023-04-24T01:52:53;94629.06;;;11.27;53.08
78149;BME280;67396;42.664;23.382;2023-04-24T01:55:19;94644.00;;;11.26;53.13
78149;BME280;67396;42.664;23.382;2023-04-24T01:57:44;94633.06;;;11.15;53.84
78149;BME280;67396;42.664;23.382;2023-04-24T02:00:10;94631.44;;;11.18;53.76
78149;BME280;67396;42.664;23.382;2023-04-24T02:02:37;94630.66;;;11.28;53.29
78149;BME280;67396;42.664;23.382;2023-04-24T02:05:06;94621.19;;;11.43;53.14
78149;BME280;67396;42.664;23.382;2023-04-24T02:07:31;94628.22;;;11.51;52.94
78149;BME280;67396;42.664;23.382;2023-04-24T02:09:57;94628.22;;;11.51;52.72
78149;BME280;67396;42.664;23.382;2023-04-24T02:12:23;94624.38;;;11.27;54.38
78149;BME280;67396;42.664;23.382;2023-04-24T02:14:48;94619.25;;;11.26;54.29
78149;BME280;67396;42.664;23.382;2023-04-24T02:17:14;94619.69;;;11.14;54.90
78149;BME280;67396;42.664;23.382;2023-04-24T02:19:40;94625.66;;;10.80;55.81
78149;BME280;67396;42.664;23.382;2023-04-24T02:22:06;94612.69;;;10.13;57.72
78149;BME280;67396;42.664;23.382;2023-04-24T02:24:31;94612.25;;;9.83;59.38
78149;BME280;67396;42.664;23.382;2023-04-24T02:26:56;94614.22;;;10.04;58.66
78149;BME280;67396;42.664;23.382;2023-04-24T02:29:23;94626.31;;;9.78;59.56
78149;BME280;67396;42.664;23.382;2023-04-24T02:31:48;94615.66;;;9.52;60.56
78149;BME280;67396;42.664;23.382;2023-04-24T02:34:14;94621.41;;;9.18;61.67
78149;BME280;67396;42.664;23.382;2023-04-24T02:36:39;94625.78;;;9.30;61.47
78149;BME280;67396;42.664;23.382;2023-04-24T02:39:05;94612.94;;;9.48;60.81
78149;BME280;67396;42.664;23.382;2023-04-24T02:41:33;94616.91;;;9.72;60.11
78149;BME280;67396;42.664;23.382;2023-04-24T02:43:58;94608.38;;;10.02;58.58
78149;BME280;67396;42.664;23.382;2023-04-24T02:46:24;94610.75;;;10.17;57.66
78149;BME280;67396;42.664;23.382;2023-04-24T02:48:50;94611.16;;;10.30;57.49
78149;BME280;67396;42.664;23.382;2023-04-24T02:51:15;94598.63;;;10.26;57.25
78149;BME280;67396;42.664;23.382;2023-04-24T02:53:41;94600.97;;;10.45;56.89
78149;BME280;67396;42.664;23.382;2023-04-24T02:56:06;94604.50;;;10.42;56.42
78149;BME280;67396;42.664;23.382;2023-04-24T02:58:31;94608.03;;;10.53;58.42
78149;BME280;67396;42.664;23.382;2023-04-24T03:00:57;94598.19;;;10.73;56.97
78149;BME280;67396;42.664;23.382;2023-04-24T03:03:22;94605.22;;;10.99;57.22
78149;BME280;67396;42.664;23.382;2023-04-24T03:05:48;94606.34;;;11.19;54.80
78149;BME280;67396;42.664;23.382;2023-04-24T03:08:17;94603.25;;;11.00;55.41
78149;BME280;67396;42.664;23.382;2023-04-24T03:10:43;94606.00;;;11.03;55.84
78149;BME280;67396;42.664;23.382;2023-04-24T03:13:09;94618.13;;;11.20;55.47
78149;BME280;67396;42.664;23.382;2023-04-24T03:15:34;94611.84;;;11.16;54.91
78149;BME280;67396;42.664;23.382;2023-04-24T03:18:00;94614.94;;;11.32;54.27
78149;BME280;67396;42.664;23.382;2023-04-24T03:20:25;94616.47;;;11.40;53.74
78149;BME280;67396;42.664;23.382;2023-04-24T03:22:51;94614.56;;;11.30;53.44
78149;BME280;67396;42.664;23.382;2023-04-24T03:25:16;94616.59;;;11.05;54.07
78149;BME280;67396;42.664;23.382;2023-04-24T03:27:42;94611.13;;;10.90;55.42
78149;BME280;67396;42.664;23.382;2023-04-24T03:30:08;94615.84;;;10.90;56.24
78149;BME280;67396;42.664;23.382;2023-04-24T03:32:33;94611.94;;;10.63;57.37
78149;BME280;67396;42.664;23.382;2023-04-24T03:34:59;94615.47;;;10.35;58.07
78149;BME280;67396;42.664;23.382;2023-04-24T03:37:26;94605.69;;;10.51;57.08
78149;BME280;67396;42.664;23.382;2023-04-24T03:39:52;94622.13;;;10.66;56.39
78149;BME280;67396;42.664;23.382;2023-04-24T03:42:17;94620.94;;;10.81;56.37
78149;BME280;67396;42.664;23.382;2023-04-24T03:44:43;94618.59;;;10.86;56.03
78149;BME280;67396;42.664;23.382;2023-04-24T03:47:08;94624.88;;;10.90;55.82
78149;BME280;67396;42.664;23.382;2023-04-24T03:49:34;94607.19;;;10.84;56.28
78149;BME280;67396;42.664;23.382;2023-04-24T03:51:59;94605.66;;;10.69;56.75
78149;BME280;67396;42.664;23.382;2023-04-24T03:54:25;94615.84;;;10.58;57.40
78149;BME280;67396;42.664;23.382;2023-04-24T03:56:51;94620.56;;;10.79;55.12
78149;BME280;67396;42.664;23.382;2023-04-24T03:59:16;94611.50;;;10.96;53.31
78149;BME280;67396;42.664;23.382;2023-04-24T04:01:42;94617.38;;;11.05;52.70
78149;BME280;67396;42.664;23.382;2023-04-24T04:04:11;94609.88;;;11.20;52.33
78149;BME280;67396;42.664;23.382;2023-04-24T04:06:36;94617.28;;;11.37;51.82
78149;BME280;67396;42.664;23.382;2023-04-24T04:09:02;94616.44;;;11.47;51.85
78149;BME280;67396;42.664;23.382;2023-04-24T04:11:28;94618.03;;;11.52;51.12
78149;BME280;67396;42.664;23.382;2023-04-24T04:13:54;94618.38;;;11.57;51.15
78149;BME280;67396;42.664;23.382;2023-04-24T04:16:19;94621.66;;;11.17;53.22
78149;BME280;67396;42.664;23.382;2023-04-24T04:18:45;94626.06;;;10.79;55.14
78149;BME280;67396;42.664;23.382;2023-04-24T04:21:11;94628.00;;;10.85;54.55
78149;BME280;67396;42.664;23.382;2023-04-24T04:23:36;94626.81;;;10.97;53.87
78149;BME280;67396;42.664;23.382;2023-04-24T04:26:03;94630.69;;;11.10;53.66
78149;BME280;67396;42.664;23.382;2023-04-24T04:28:29;94622.47;;;11.07;54.00
78149;BME280;67396;42.664;23.382;2023-04-24T04:30:57;94625.59;;;11.09;53.63
78149;BME280;67396;42.664;23.382;2023-04-24T04:33:23;94626.78;;;11.15;53.10
78149;BME280;67396;42.664;23.382;2023-04-24T04:35:49;94628.28;;;11.34;51.39
78149;BME280;67396;42.664;23.382;2023-04-24T04:38:20;94618.03;;;11.52;54.89
78149;BME280;67396;42.664;23.382;2023-04-24T04:40:45;94630.97;;;11.48;52.23
78149;BME280;67396;42.664;23.382;2023-04-24T04:43:11;94622.00;;;11.33;52.90
78149;BME280;67396;42.664;23.382;2023-04-24T04:45:38;94634.63;;;11.13;52.88
78149;BME280;67396;42.664;23.382;2023-04-24T04:48:05;94642.91;;;10.84;53.51
78149;BME280;67396;42.664;23.382;2023-04-24T04:50:35;94635.88;;;10.55;54.75
78149;BME280;67396;42.664;23.382;2023-04-24T04:53:01;94644.09;;;10.48;55.11
78149;BME280;67396;42.664;23.382;2023-04-24T04:55:26;94646.44;;;10.35;55.03
78149;BME280;67396;42.664;23.382;2023-04-24T04:57:52;94646.44;;;10.53;54.69
78149;BME280;67396;42.664;23.382;2023-04-24T05:00:18;94650.75;;;10.18;55.18
78149;BME280;67396;42.664;23.382;2023-04-24T05:02:43;94651.84;;;10.14;56.06
78149;BME280;67396;42.664;23.382;2023-04-24T05:05:09;94654.22;;;10.08;55.61
78149;BME280;67396;42.664;23.382;2023-04-24T05:07:35;94654.13;;;9.80;57.68
78149;BME280;67396;42.664;23.382;2023-04-24T05:10:00;94650.97;;;9.71;57.28
78149;BME280;67396;42.664;23.382;2023-04-24T05:12:25;94646.75;;;9.98;57.21
78149;BME280;67396;42.664;23.382;2023-04-24T05:14:52;94642.50;;;10.26;56.13
78149;BME280;67396;42.664;23.382;2023-04-24T05:17:17;94653.47;;;10.26;56.33
78149;BME280;67396;42.664;23.382;2023-04-24T05:19:42;94653.03;;;10.09;56.69
78149;BME280;67396;42.664;23.382;2023-04-24T05:22:08;94653.84;;;10.21;56.88
78149;BME280;67396;42.664;23.382;2023-04-24T05:24:35;94658.91;;;10.11;56.31
78149;BME280;67396;42.664;23.382;2023-04-24T05:27:02;94652.25;;;10.05;56.95
78149;BME280;67396;42.664;23.382;2023-04-24T05:29:28;94648.31;;;10.06;57.39
78149;BME280;67396;42.664;23.382;2023-04-24T05:31:56;94658.50;;;10.06;57.13
78149;BME280;67396;42.664;23.382;2023-04-24T05:34:21;94655.78;;;10.09;56.44
78149;BME280;67396;42.664;23.382;2023-04-24T05:36:46;94646.41;;;10.17;56.57
78149;BME280;67396;42.664;23.382;2023-04-24T05:39:13;94642.88;;;10.21;57.03
78149;BME280;67396;42.664;23.382;2023-04-24T05:41:38;94648.38;;;10.31;56.47
78149;BME280;67396;42.664;23.382;2023-04-24T05:44:04;94651.91;;;10.32;57.43
78149;BME280;67396;42.664;23.382;2023-04-24T05:46:29;94662.50;;;10.40;56.75
78149;BME280;67396;42.664;23.382;2023-04-24T05:48:54;94658.22;;;10.71;56.73
78149;BME280;67396;42.664;23.382;2023-04-24T05:51:20;94657.69;;;11.51;55.53
78149;BME280;67396;42.664;23.382;2023-04-24T05:53:46;94654.19;;;11.43;54.60
78149;BME280;67396;42.664;23.382;2023-04-24T05:56:11;94658.00;;;11.63;55.08
78149;BME280;67396;42.664;23.382;2023-04-24T05:58:37;94653.28;;;11.78;54.63
78149;BME280;67396;42.664;23.382;2023-04-24T06:01:03;94654.66;;;12.15;53.62
78149;BME280;67396;42.664;23.382;2023-04-24T06:03:28;94650.53;;;12.48;52.63
78149;BME280;67396;42.664;23.382;2023-04-24T06:05:53;94652.31;;;12.68;51.95
78149;BME280;67396;42.664;23.382;2023-04-24T06:08:19;94644.03;;;12.72;51.05
78149;BME280;67396;42.664;23.382;2023-04-24T06:10:45;94652.69;;;12.74;52.05
78149;BME280;67396;42.664;23.382;2023-04-24T06:13:11;94639.16;;;12.90;50.57
78149;BME280;67396;42.664;23.382;2023-04-24T06:15:37;94643.66;;;12.70;50.93
78149;BME280;67396;42.664;23.382;2023-04-24T06:18:02;94644.22;;;12.47;52.15
78149;BME280;67396;42.664;23.382;2023-04-24T06:20:28;94649.53;;;12.72;52.01
78149;BME280;67396;42.664;23.382;2023-04-24T06:22:53;94644.63;;;12.94;50.41
78149;BME280;67396;42.664;23.382;2023-04-24T06:25:19;94651.75;;;13.36;50.99
78149;BME280;67396;42.664;23.382;2023-04-24T06:27:44;94651.81;;;13.97;49.07
78149;BME280;67396;42.664;23.382;2023-04-24T06:30:10;94648.50;;;13.78;48.62
78149;BME280;67396;42.664;23.382;2023-04-24T06:32:36;94650.81;;;13.46;49.28
78149;BME280;67396;42.664;23.382;2023-04-24T06:35:02;94647.41;;;13.35;49.30
78149;BME280;67396;42.664;23.382;2023-04-24T06:37:27;94651.06;;;13.59;49.61
78149;BME280;67396;42.664;23.382;2023-04-24T06:39:53;94639.03;;;13.79;48.99
78149;BME280;67396;42.664;23.382;2023-04-24T06:42:19;94640.16;;;14.12;48.36
78149;BME280;67396;42.664;23.382;2023-04-24T06:44:46;94649.19;;;13.86;48.58
78149;BME280;67396;42.664;23.382;2023-04-24T06:47:11;94651.25;;;13.78;48.41
78149;BME280;67396;42.664;23.382;2023-04-24T06:49:39;94646.56;;;14.06;48.68
78149;BME280;67396;42.664;23.382;2023-04-24T06:52:06;94653.41;;;14.24;47.87
78149;BME280;67396;42.664;23.382;2023-04-24T06:54:32;94650.47;;;14.35;47.33
78149;BME280;67396;42.664;23.382;2023-04-24T06:56:58;94648.59;;;14.59;46.83
78149;BME280;67396;42.664;23.382;2023-04-24T06:59:24;94650.59;;;15.05;46.50
78149;BME280;67396;42.664;23.382;2023-04-24T07:01:57;94649.03;;;15.27;45.79
78149;BME280;67396;42.664;23.382;2023-04-24T07:04:23;94643.44;;;15.74;44.51
78149;BME280;67396;42.664;23.382;2023-04-24T07:06:50;94641.50;;;16.10;42.90
78149;BME280;67396;42.664;23.382;2023-04-24T07:09:16;94632.91;;;16.25;41.70
78149;BME280;67396;42.664;23.382;2023-04-24T07:11:44;94638.78;;;16.27;43.14
78149;BME280;67396;42.664;23.382;2023-04-24T07:14:09;94641.19;;;15.46;44.55
78149;BME280;67396;42.664;23.382;2023-04-24T07:16:35;94625.56;;;15.35;45.49
78149;BME280;67396;42.664;23.382;2023-04-24T07:19:04;94631.19;;;15.52;44.48
78149;BME280;67396;42.664;23.382;2023-04-24T07:21:32;94629.81;;;15.20;45.66
78149;BME280;67396;42.664;23.382;2023-04-24T07:23:58;94637.16;;;15.50;45.54
78149;BME280;67396;42.664;23.382;2023-04-24T07:26:25;94631.66;;;16.09;43.11
78149;BME280;67396;42.664;23.382;2023-04-24T07:28:52;94620.16;;;16.63;41.31
78149;BME280;67396;42.664;23.382;2023-04-24T07:31:17;94630.94;;;16.58;41.24
78149;BME280;67396;42.664;23.382;2023-04-24T07:33:43;94615.88;;;16.59;40.84
78149;BME280;67396;42.664;23.382;2023-04-24T07:36:08;94609.16;;;16.92;41.13
78149;BME280;67396;42.664;23.382;2023-04-24T07:38:40;94616.94;;;17.29;42.00
78149;BME280;67396;42.664;23.382;2023-04-24T07:41:05;94609.16;;;17.53;41.33
78149;BME280;67396;42.664;23.382;2023-04-24T07:43:31;94608.91;;;17.77;39.98
78149;BME280;67396;42.664;23.382;2023-04-24T07:45:56;94606.50;;;17.50;41.28
78149;BME280;67396;42.664;23.382;2023-04-24T07:48:31;94611.53;;;17.39;38.51
78149;BME280;67396;42.664;23.382;2023-04-24T07:50:56;94614.28;;;17.84;37.61
78149;BME280;67396;42.664;23.382;2023-04-24T07:53:21;94607.88;;;18.12;37.34
78149;BME280;67396;42.664;23.382;2023-04-24T07:55:47;94609.69;;;18.19;37.49
78149;BME280;67396;42.664;23.382;2023-04-24T07:58:16;94597.16;;;18.52;36.59
78149;BME280;67396;42.664;23.382;2023-04-24T08:00:41;94590.72;;;18.55;38.16
78149;BME280;67396;42.664;23.382;2023-04-24T08:03:06;94601.13;;;19.14;37.26
78149;BME280;67396;42.664;23.382;2023-04-24T08:05:32;94594.72;;;19.27;36.65
78149;BME280;67396;42.664;23.382;2023-04-24T08:07:58;94596.56;;;19.55;35.40
78149;BME280;67396;42.664;23.382;2023-04-24T08:10:24;94599.28;;;19.33;36.78
78149;BME280;67396;42.664;23.382;2023-04-24T08:12:50;94593.50;;;19.28;35.95
78149;BME280;67396;42.664;23.382;2023-04-24T08:15:16;94594.88;;;19.23;37.12
78149;BME280;67396;42.664;23.382;2023-04-24T08:17:41;94595.16;;;18.91;37.93
78149;BME280;67396;42.664;23.382;2023-04-24T08:20:08;94587.66;;;19.00;36.11
78149;BME280;67396;42.664;23.382;2023-04-24T08:22:41;94581.75;;;19.11;36.24
78149;BME280;67396;42.664;23.382;2023-04-24T08:25:08;94580.19;;;18.63;36.54
78149;BME280;67396;42.664;23.382;2023-04-24T08:27:33;94580.97;;;19.10;35.89
78149;BME280;67396;42.664;23.382;2023-04-24T08:29:59;94583.44;;;19.08;36.47
78149;BME280;67396;42.664;23.382;2023-04-24T08:32:25;94582.78;;;19.39;35.55
78149;BME280;67396;42.664;23.382;2023-04-24T08:34:54;94577.56;;;19.41;36.16
78149;BME280;67396;42.664;23.382;2023-04-24T08:37:21;94576.88;;;19.37;35.59
78149;BME280;67396;42.664;23.382;2023-04-24T08:39:47;94569.94;;;19.20;35.93
78149;BME280;67396;42.664;23.382;2023-04-24T08:42:12;94579.75;;;19.46;35.69
78149;BME280;67396;42.664;23.382;2023-04-24T08:44:38;94571.84;;;19.57;36.53
78149;BME280;67396;42.664;23.382;2023-04-24T08:47:04;94568.38;;;19.53;36.45
78149;BME280;67396;42.664;23.382;2023-04-24T08:49:30;94564.47;;;19.85;34.20
78149;BME280;67396;42.664;23.382;2023-04-24T08:51:56;94559.72;;;19.51;35.05
78149;BME280;67396;42.664;23.382;2023-04-24T08:54:22;94571.31;;;19.71;34.68
78149;BME280;67396;42.664;23.382;2023-04-24T08:56:48;94559.84;;;19.47;34.90
78149;BME280;67396;42.664;23.382;2023-04-24T08:59:15;94553.56;;;19.56;34.97
78149;BME280;67396;42.664;23.382;2023-04-24T09:01:44;94543.53;;;19.59;35.17
78149;BME280;67396;42.664;23.382;2023-04-24T09:04:16;94541.72;;;19.65;35.55
78149;BME280;67396;42.664;23.382;2023-04-24T09:06:45;94539.03;;;19.52;35.50
78149;BME280;67396;42.664;23.382;2023-04-24T09:09:11;94539.09;;;19.61;35.16
78149;BME280;67396;42.664;23.382;2023-04-24T09:11:37;94541.22;;;19.23;36.06
78149;BME280;67396;42.664;23.382;2023-04-24T09:14:03;94533.31;;;18.87;36.08
78149;BME280;67396;42.664;23.382;2023-04-24T09:16:29;94534.44;;;18.76;36.95
78149;BME280;67396;42.664;23.382;2023-04-24T09:18:55;94533.56;;;18.79;36.27
78149;BME280;67396;42.664;23.382;2023-04-24T09:21:21;94521.81;;;18.97;35.69
78149;BME280;67396;42.664;23.382;2023-04-24T09:24:00;94525.66;;;19.12;36.09
78149;BME280;67396;42.664;23.382;2023-04-24T09:26:28;94519.22;;;19.15;35.99
78149;BME280;67396;42.664;23.382;2023-04-24T09:28:56;94509.50;;;18.86;36.74
78149;BME280;67396;42.664;23.382;2023-04-24T09:31:21;94507.22;;;18.71;36.92
78149;BME280;67396;42.664;23.382;2023-04-24T09:36:34;94505.50;;;18.87;36.24
78149;BME280;67396;42.664;23.382;2023-04-24T09:39:04;94505.94;;;18.85;36.12
78149;BME280;67396;42.664;23.382;2023-04-24T09:41:32;94503.56;;;18.96;35.73
78149;BME280;67396;42.664;23.382;2023-04-24T09:44:10;94502.91;;;19.27;34.74
78149;BME280;67396;42.664;23.382;2023-04-24T09:46:36;94491.31;;;19.28;35.30
78149;BME280;67396;42.664;23.382;2023-04-24T09:49:14;94488.75;;;19.34;37.12
78149;BME280;67396;42.664;23.382;2023-04-24T09:51:40;94494.53;;;19.27;35.29
78149;BME280;67396;42.664;23.382;2023-04-24T09:54:17;94495.59;;;19.20;35.31
78149;BME280;67396;42.664;23.382;2023-04-24T09:56:44;94494.44;;;19.30;34.99
78149;BME280;67396;42.664;23.382;2023-04-24T09:59:12;94497.00;;;19.59;34.19
78149;BME280;67396;42.664;23.382;2023-04-24T10:01:37;94484.69;;;19.69;34.24
78149;BME280;67396;42.664;23.382;2023-04-24T10:04:03;94477.28;;;19.75;34.87
78149;BME280;67396;42.664;23.382;2023-04-24T10:06:39;94480.06;;;19.75;34.86
78149;BME280;67396;42.664;23.382;2023-04-24T10:09:07;94465.19;;;19.69;36.49
78149;BME280;67396;42.664;23.382;2023-04-24T10:11:32;94475.84;;;19.71;38.14
78149;BME280;67396;42.664;23.382;2023-04-24T10:13:58;94471.00;;;19.62;35.95
78149;BME280;67396;42.664;23.382;2023-04-24T10:16:25;94470.75;;;19.47;34.93
78149;BME280;67396;42.664;23.382;2023-04-24T10:18:52;94470.88;;;19.22;35.16
78149;BME280;67396;42.664;23.382;2023-04-24T10:21:18;94458.03;;;19.03;35.14
78149;BME280;67396;42.664;23.382;2023-04-24T10:23:44;94451.78;;;18.77;35.67
78149;BME280;67396;42.664;23.382;2023-04-24T10:26:15;94452.56;;;18.77;36.25
78149;BME280;67396;42.664;23.382;2023-04-24T10:28:46;94454.03;;;18.82;36.24
78149;BME280;67396;42.664;23.382;2023-04-24T10:31:15;94445.91;;;18.75;36.23
78149;BME280;67396;42.664;23.382;2023-04-24T10:33:42;94450.50;;;18.69;35.98
78149;BME280;67396;42.664;23.382;2023-04-24T10:36:12;94446.19;;;18.55;35.60
78149;BME280;67396;42.664;23.382;2023-04-24T10:38:40;94445.50;;;18.51;35.93
78149;BME280;67396;42.664;23.382;2023-04-24T10:41:11;94435.41;;;18.45;36.30
78149;BME280;67396;42.664;23.382;2023-04-24T10:43:44;94437.53;;;18.40;37.15
78149;BME280;67396;42.664;23.382;2023-04-24T10:46:10;94433.50;;;18.54;35.36
78149;BME280;67396;42.664;23.382;2023-04-24T10:48:42;94423.94;;;18.55;34.59
78149;BME280;67396;42.664;23.382;2023-04-24T10:51:11;94430.44;;;18.74;34.60
78149;BME280;67396;42.664;23.382;2023-04-24T10:53:38;94419.53;;;18.79;34.30
78149;BME280;67396;42.664;23.382;2023-04-24T10:56:08;94420.56;;;18.73;34.98
78149;BME280;67396;42.664;23.382;2023-04-24T10:58:43;94409.69;;;18.66;34.86
78149;BME280;67396;42.664;23.382;2023-04-24T11:01:29;94413.22;;;18.66;34.17
78149;BME280;67396;42.664;23.382;2023-04-24T11:03:58;94406.53;;;18.76;33.71
78149;BME280;67396;42.664;23.382;2023-04-24T11:06:35;94404.94;;;18.88;34.08
78149;BME280;67396;42.664;23.382;2023-04-24T11:09:10;94399.03;;;18.86;34.19
78149;BME280;67396;42.664;23.382;2023-04-24T11:11:45;94397.88;;;18.96;34.16
78149;BME280;67396;42.664;23.382;2023-04-24T11:14:14;94397.03;;;18.87;34.57
78149;BME280;67396;42.664;23.382;2023-04-24T11:16:54;94387.91;;;18.86;34.15
78149;BME280;67396;42.664;23.382;2023-04-24T11:19:24;94385.84;;;18.99;33.16
78149;BME280;67396;42.664;23.382;2023-04-24T11:22:01;94379.75;;;19.13;32.71
78149;BME280;67396;42.664;23.382;2023-04-24T11:24:28;94387.72;;;19.24;32.62
78149;BME280;67396;42.664;23.382;2023-04-24T11:26:59;94381.16;;;19.18;33.48
78149;BME280;67396;42.664;23.382;2023-04-24T11:34:51;94418.72;;;18.45;36.72
78149;BME280;67396;42.664;23.382;2023-04-24T11:37:17;94428.56;;;17.86;39.89
78149;BME280;67396;42.664;23.382;2023-04-24T11:39:43;94438.69;;;17.13;46.58
78149;BME280;67396;42.664;23.382;2023-04-24T11:42:14;94431.13;;;16.39;48.02
78149;BME280;67396;42.664;23.382;2023-04-24T11:44:41;94438.06;;;16.31;50.53
78149;BME280;67396;42.664;23.382;2023-04-24T11:47:08;94433.34;;;16.61;50.55
78149;BME280;67396;42.664;23.382;2023-04-24T11:49:36;94432.78;;;16.82;48.10
78149;BME280;67396;42.664;23.382;2023-04-24T11:52:02;94423.47;;;17.05;48.70
78149;BME280;67396;42.664;23.382;2023-04-24T11:54:30;94425.50;;;17.29;42.78
78149;BME280;67396;42.664;23.382;2023-04-24T11:56:56;94415.66;;;17.41;42.98
78149;BME280;67396;42.664;23.382;2023-04-24T11:59:22;94417.97;;;17.43;46.93
78149;BME280;67396;42.664;23.382;2023-04-24T12:01:48;94402.75;;;17.35;45.95
78149;BME280;67396;42.664;23.382;2023-04-24T12:04:16;94396.78;;;17.36;45.66
78149;BME280;67396;42.664;23.382;2023-04-24T12:07:02;94390.78;;;17.38;44.25
78149;BME280;67396;42.664;23.382;2023-04-24T12:09:27;94392.56;;;17.44;40.77
78149;BME280;67396;42.664;23.382;2023-04-24T12:11:56;94395.34;;;17.44;40.61
78149;BME280;67396;42.664;23.382;2023-04-24T12:14:22;94385.78;;;17.45;40.59
78149;BME280;67396;42.664;23.382;2023-04-24T12:16:51;94385.69;;;17.61;40.48
78149;BME280;67396;42.664;23.382;2023-04-24T12:19:21;94376.50;;;17.77;40.03
78149;BME280;67396;42.664;23.382;2023-04-24T12:22:05;94374.84;;;17.80;40.42
78149;BME280;67396;42.664;23.382;2023-04-24T12:24:31;94370.59;;;17.88;40.00
78149;BME280;67396;42.664;23.382;2023-04-24T12:26:57;94378.16;;;18.00;40.15
78149;BME280;67396;42.664;23.382;2023-04-24T12:29:27;94380.25;;;17.96;41.01
78149;BME280;67396;42.664;23.382;2023-04-24T12:31:52;94375.72;;;18.02;40.36
78149;BME280;67396;42.664;23.382;2023-04-24T12:34:21;94368.03;;;18.06;39.86
78149;BME280;67396;42.664;23.382;2023-04-24T12:36:47;94353.25;;;17.96;40.10
78149;BME280;67396;42.664;23.382;2023-04-24T12:39:20;94353.09;;;17.65;41.19
78149;BME280;67396;42.664;23.382;2023-04-24T12:41:56;94350.72;;;17.39;41.22
78149;BME280;67396;42.664;23.382;2023-04-24T12:44:42;94346.28;;;17.28;41.16
78149;BME280;67396;42.664;23.382;2023-04-24T12:47:08;94341.94;;;17.27;42.35
78149;BME280;67396;42.664;23.382;2023-04-24T12:49:37;94328.63;;;17.10;41.71
78149;BME280;67396;42.664;23.382;2023-04-24T12:52:03;94322.34;;;16.80;41.59
78149;BME280;67396;42.664;23.382;2023-04-24T12:54:32;94320.59;;;16.86;41.45
78149;BME280;67396;42.664;23.382;2023-04-24T12:56:57;94324.38;;;16.92;40.65